createdAt,value
2023-02-18T00:03:00.027Z,101374.16
2023-02-18T00:06:31.893Z,101367.25
2023-02-18T00:09:37.919Z,101368.06
2023-02-18T00:12:42.674Z,101354.09
2023-02-18T00:15:47.150Z,101357.72
2023-02-18T00:18:55.950Z,101357.56
2023-02-18T00:22:00.229Z,101348.97
2023-02-18T00:25:04.772Z,101346.28
2023-02-18T00:28:08.868Z,101363.84
2023-02-18T00:31:17.404Z,101362.91
2023-02-18T00:34:21.644Z,101357.72
2023-02-18T00:37:25.661Z,101365.66
2023-02-18T00:40:30.093Z,101369.91
2023-02-18T00:43:34.439Z,101369.03
2023-02-18T00:46:39.722Z,101371.59
2023-02-18T00:49:44.423Z,101375.13
2023-02-18T00:52:49.050Z,101368.13
2023-02-18T00:55:53.589Z,101371.75
2023-02-18T00:58:57.877Z,101377.88
2023-02-18T01:02:02.283Z,101360.50
2023-02-18T01:05:07.011Z,101370.13
2023-02-18T01:08:12.186Z,101375.34
2023-02-18T01:11:16.708Z,101366.59
2023-02-18T01:14:21.246Z,101368.34
2023-02-18T01:17:25.592Z,101374.47
2023-02-18T01:20:30.204Z,101374.44
2023-02-18T01:23:36.208Z,101373.72
2023-02-18T01:26:40.388Z,101372.88
2023-02-18T01:29:44.641Z,101376.31
2023-02-18T01:32:49.298Z,101366.75
2023-02-18T01:35:54.097Z,101370.22
2023-02-18T01:38:58.426Z,101372.00
2023-02-18T01:42:03.352Z,101377.13
2023-02-18T01:45:35.790Z,101379.88
2023-02-18T01:48:44.005Z,101377.22
2023-02-18T01:51:54.537Z,101373.72
2023-02-18T01:54:59.815Z,101378.88
2023-02-18T01:58:04.361Z,101369.34
2023-02-18T02:01:10.166Z,101364.09
2023-02-18T02:04:14.474Z,101365.81
2023-02-18T02:07:21.164Z,101366.03
2023-02-18T02:10:33.566Z,101369.44
2023-02-18T02:14:06.580Z,101372.09
2023-02-18T02:17:26.998Z,101368.66
2023-02-18T02:21:05.242Z,101372.09
2023-02-18T02:24:57.400Z,101370.25
2023-02-18T02:28:39.367Z,101361.63
2023-02-18T02:32:21.169Z,101364.16
2023-02-18T02:35:48.281Z,101354.72
2023-02-18T02:38:56.783Z,101362.53
2023-02-18T02:42:08.080Z,101365.94
2023-02-18T02:46:10.149Z,101355.59
2023-02-18T02:49:49.478Z,101357.28
2023-02-18T02:53:06.105Z,101361.63
2023-02-18T02:56:17.070Z,101359.78
2023-02-18T02:59:26.651Z,101358.00
2023-02-18T03:03:09.553Z,101352.00
2023-02-18T03:06:40.802Z,101352.84
2023-02-18T03:10:34.276Z,101358.88
2023-02-18T03:13:54.350Z,101349.28
2023-02-18T03:17:30.060Z,101346.59
2023-02-18T03:20:46.534Z,101346.56
2023-02-18T03:24:15.144Z,101352.69
2023-02-18T03:27:27.778Z,101351.78
2023-02-18T03:31:10.854Z,101348.28
2023-02-18T03:34:23.321Z,101351.66
2023-02-18T03:37:28.153Z,101344.59
2023-02-18T03:40:32.644Z,101350.69
2023-02-18T03:43:37.107Z,101364.69
2023-02-18T03:46:44.296Z,101376.84
2023-02-18T03:49:48.628Z,101368.22
2023-02-18T03:52:53.193Z,101359.69
2023-02-18T03:55:57.367Z,101363.34
2023-02-18T03:59:02.605Z,101357.63
2023-02-18T04:02:06.689Z,101355.97
2023-02-18T04:05:13.093Z,101345.66
2023-02-18T04:08:17.467Z,101344.00
2023-02-18T04:11:21.951Z,101348.44
2023-02-18T04:14:26.336Z,101357.13
2023-02-18T04:17:31.957Z,101357.97
2023-02-18T04:20:37.276Z,101363.19
2023-02-18T04:23:41.365Z,101360.59
2023-02-18T04:26:45.626Z,101366.81
2023-02-18T04:29:49.858Z,101375.50
2023-02-18T04:32:54.122Z,101383.31
2023-02-18T04:35:58.028Z,101385.88
2023-02-18T04:39:01.988Z,101386.84
2023-02-18T04:42:08.987Z,101388.59
2023-02-18T04:45:13.877Z,101379.97
2023-02-18T04:48:18.123Z,101372.13
2023-02-18T04:51:22.470Z,101374.63
2023-02-18T04:54:26.501Z,101378.16
2023-02-18T04:57:30.867Z,101395.56
2023-02-18T05:00:35.237Z,101396.47
2023-02-18T05:03:39.735Z,101394.75
2023-02-18T05:06:44.490Z,101393.84
2023-02-18T05:09:48.599Z,101389.59
2023-02-18T05:12:53.012Z,101395.66
2023-02-18T05:15:57.666Z,101385.28
2023-02-18T05:19:02.286Z,101393.84
2023-02-18T05:22:06.538Z,101392.97
2023-02-18T05:25:11.048Z,101400.84
2023-02-18T05:28:15.455Z,101390.41
2023-02-18T05:31:19.640Z,101398.16
2023-02-18T05:34:24.515Z,101399.91
2023-02-18T05:37:28.695Z,101402.53
2023-02-18T05:40:32.985Z,101396.34
2023-02-18T05:43:57.254Z,101412.00
2023-02-18T05:47:04.795Z,101409.50
2023-02-18T05:50:09.502Z,101411.22
2023-02-18T05:53:14.485Z,101406.94
2023-02-18T05:56:20.258Z,101405.28
2023-02-18T05:59:24.933Z,101399.22
2023-02-18T06:02:29.521Z,101395.75
2023-02-18T06:05:33.862Z,101378.38
2023-02-18T06:08:38.080Z,101385.28
2023-02-18T06:11:42.571Z,101377.44
2023-02-18T06:14:47.526Z,101379.22
2023-02-18T06:17:51.907Z,101378.38
2023-02-18T06:20:56.461Z,101386.19
2023-02-18T06:24:00.741Z,101374.16
2023-02-18T06:27:05.803Z,101375.13
2023-02-18T06:30:10.805Z,101376.91
2023-02-18T06:33:15.189Z,101379.44
2023-02-18T06:36:19.915Z,101369.09
2023-02-18T06:39:24.315Z,101377.72
2023-02-18T06:42:28.496Z,101365.53
2023-02-18T06:45:33.009Z,101352.56
2023-02-18T06:48:38.172Z,101354.28
2023-02-18T06:51:42.481Z,101358.63
2023-02-18T06:54:46.285Z,101361.28
2023-02-18T06:57:50.440Z,101362.28
2023-02-18T07:00:54.962Z,101362.28
2023-02-18T07:03:59.593Z,101368.28
2023-02-18T07:07:04.114Z,101359.66
2023-02-18T07:10:09.104Z,101352.72
2023-02-18T07:13:13.804Z,101349.25
2023-02-18T07:16:18.020Z,101347.50
2023-02-18T07:19:22.418Z,101342.28
2023-02-18T07:22:26.767Z,101332.72
2023-02-18T07:25:30.954Z,101326.69
2023-02-18T07:28:35.388Z,101329.41
2023-02-18T07:31:39.942Z,101325.09
2023-02-18T07:34:44.940Z,101311.25
2023-02-18T07:37:50.444Z,101307.75
2023-02-18T07:40:57.189Z,101298.25
2023-02-18T07:44:02.468Z,101287.81
2023-02-18T07:47:08.772Z,101284.28
2023-02-18T07:50:13.081Z,101287.84
2023-02-18T07:53:17.783Z,101285.13
2023-02-18T07:56:22.053Z,101279.09
2023-02-18T07:59:26.484Z,101274.72
2023-02-18T08:02:31.075Z,101259.94
2023-02-18T08:05:35.199Z,101266.91
2023-02-18T08:08:39.533Z,101264.38
2023-02-18T08:11:44.429Z,101252.25
2023-02-18T08:14:48.934Z,101252.06
2023-02-18T08:17:53.368Z,101249.34
2023-02-18T08:20:58.707Z,101240.63
2023-02-18T08:24:03.251Z,101237.22
2023-02-18T08:27:07.673Z,101237.22
2023-02-18T08:30:13.087Z,101227.59
2023-02-18T08:33:19.556Z,101224.84
2023-02-18T08:36:24.009Z,101210.00
2023-02-18T08:39:28.136Z,101207.31
2023-02-18T08:42:32.298Z,101174.13
2023-02-18T08:45:38.806Z,101172.25
2023-02-18T08:48:45.329Z,101162.66
2023-02-18T08:51:53.895Z,101162.59
2023-02-18T08:54:58.797Z,101153.91
2023-02-18T08:58:06.001Z,101146.91
2023-02-18T09:01:13.432Z,101153.97
2023-02-18T09:04:18.500Z,101154.75
2023-02-18T09:07:23.270Z,101136.78
2023-02-18T09:10:27.449Z,101122.78
2023-02-18T09:13:33.615Z,101117.50
2023-02-18T09:16:39.456Z,101119.16
2023-02-18T09:19:43.887Z,101128.00
2023-02-18T09:22:48.618Z,101124.72
2023-02-18T09:25:53.854Z,101113.38
2023-02-18T09:28:58.303Z,101101.78
2023-02-18T09:32:04.070Z,101099.91
2023-02-18T09:35:08.786Z,101100.06
2023-02-18T09:38:16.997Z,101092.22
2023-02-18T09:41:42.956Z,101083.38
2023-02-18T09:44:58.067Z,101086.00
2023-02-18T09:48:04.513Z,101075.50
2023-02-18T09:51:14.720Z,101069.38
2023-02-18T09:54:20.898Z,101072.06
2023-02-18T09:57:40.468Z,101071.25
2023-02-18T10:00:56.567Z,101053.63
2023-02-18T10:04:14.737Z,101032.03
2023-02-18T10:07:29.888Z,101026.84
2023-02-18T10:10:45.344Z,101029.22
2023-02-18T10:13:57.530Z,101031.59
2023-02-18T10:17:02.020Z,101033.31
2023-02-18T10:20:08.452Z,101031.72
2023-02-18T10:23:15.174Z,101029.91
2023-02-18T10:26:20.634Z,101020.31
2023-02-18T10:29:26.470Z,101007.97
2023-02-18T10:32:40.617Z,100992.94
2023-02-18T10:35:53.951Z,100977.28
2023-02-18T10:39:59.846Z,100966.84
2023-02-18T10:43:20.931Z,100953.69
2023-02-18T10:47:17.461Z,100957.81
2023-02-18T10:50:35.158Z,100954.56
2023-02-18T10:53:43.187Z,100944.88
2023-02-18T10:56:51.598Z,100925.03
2023-02-18T11:00:11.819Z,100905.59
2023-02-18T11:03:41.748Z,100930.34
2023-02-18T11:06:49.648Z,100940.78
2023-02-18T11:10:01.160Z,100908.56
2023-02-18T11:13:12.245Z,100906.97
2023-02-18T11:16:17.351Z,100911.34
2023-02-18T11:19:39.722Z,100906.78
2023-02-18T11:22:44.147Z,100897.25
2023-02-18T11:26:03.492Z,100891.09
2023-02-18T11:29:21.460Z,100892.72
2023-02-18T11:32:30.880Z,100882.88
2023-02-18T11:35:36.278Z,100879.63
2023-02-18T11:38:55.467Z,100897.16
2023-02-18T11:42:06.500Z,100893.75
2023-02-18T11:45:31.552Z,100879.91
2023-02-18T11:48:36.893Z,100854.84
2023-02-18T11:51:42.302Z,100887.00
2023-02-18T11:55:08.602Z,100871.63
2023-02-18T11:58:15.440Z,100873.44
2023-02-18T12:01:33.634Z,100863.53
2023-02-18T12:04:46.073Z,100879.75
2023-02-18T12:07:59.714Z,100897.94
2023-02-18T12:11:14.538Z,100886.59
2023-02-18T12:14:22.501Z,100905.06
2023-02-18T12:18:16.601Z,100913.00
2023-02-18T12:21:59.067Z,100890.25
2023-02-18T12:25:34.069Z,100915.50
2023-02-18T12:29:13.817Z,100927.00
2023-02-18T12:32:42.501Z,100931.28
2023-02-18T12:36:14.795Z,100949.78
2023-02-18T12:39:56.187Z,100957.00
2023-02-18T12:43:13.396Z,100926.34
2023-02-18T12:46:38.655Z,100927.88
2023-02-18T12:50:12.725Z,100949.97
2023-02-18T12:53:22.824Z,100950.75
2023-02-18T12:56:51.436Z,100948.31
2023-02-18T13:00:31.020Z,100964.09
2023-02-18T13:04:28.932Z,100976.44
2023-02-18T13:08:01.355Z,100987.06
2023-02-18T13:11:27.430Z,100985.44
2023-02-18T13:14:40.308Z,100994.31
2023-02-18T13:17:45.665Z,100979.50
2023-02-18T13:20:56.413Z,100962.25
2023-02-18T13:24:07.122Z,100973.59
2023-02-18T13:27:45.923Z,100992.66
2023-02-18T13:31:19.730Z,100996.09
2023-02-18T13:34:29.119Z,100987.34
2023-02-18T13:37:54.551Z,100972.78
2023-02-18T13:41:00.185Z,100982.00
2023-02-18T13:44:23.013Z,100967.16
2023-02-18T13:47:39.493Z,100963.53
2023-02-18T13:50:44.177Z,100959.91
2023-02-18T13:53:52.338Z,100960.94
2023-02-18T13:57:14.759Z,100962.47
2023-02-18T14:00:39.793Z,100964.19
2023-02-18T14:03:44.129Z,100959.66
2023-02-18T14:07:25.751Z,100972.56
2023-02-18T14:10:37.145Z,100960.16
2023-02-18T14:13:52.691Z,100953.16
2023-02-18T14:17:17.981Z,100967.19
2023-02-18T14:20:37.375Z,100972.41
2023-02-18T14:24:11.155Z,100981.50
2023-02-18T14:27:20.151Z,100973.88
2023-02-18T14:30:39.999Z,100973.66
2023-02-18T14:33:59.720Z,100981.25
2023-02-18T14:37:20.437Z,100974.09
2023-02-18T14:41:00.020Z,100945.72
2023-02-18T14:44:22.334Z,100962.22
2023-02-18T14:48:00.627Z,100981.50
2023-02-18T14:51:06.381Z,100986.47
2023-02-18T14:54:17.709Z,100995.03
2023-02-18T14:57:54.407Z,101000.06
2023-02-18T15:01:08.115Z,101013.03
2023-02-18T15:04:15.386Z,101023.69
2023-02-18T15:07:22.203Z,101032.16
2023-02-18T15:10:39.599Z,101037.06
2023-02-18T15:13:46.032Z,101045.69
2023-02-18T15:16:51.271Z,101041.44
2023-02-18T15:20:16.121Z,101044.91
2023-02-18T15:23:20.582Z,101047.56
2023-02-18T15:26:24.710Z,101049.38
2023-02-18T15:29:34.263Z,101046.81
2023-02-18T15:32:38.944Z,101054.81
2023-02-18T15:35:43.688Z,101037.78
2023-02-18T15:38:48.132Z,101045.81
2023-02-18T15:41:59.774Z,101049.41
2023-02-18T15:45:17.927Z,101056.47
2023-02-18T15:48:33.351Z,101054.84
2023-02-18T15:51:38.438Z,101058.34
2023-02-18T15:54:43.426Z,101054.25
2023-02-18T15:57:49.199Z,101065.50
2023-02-18T16:00:59.927Z,101077.69
2023-02-18T16:04:07.344Z,101093.44
2023-02-18T16:07:37.692Z,101091.09
2023-02-18T16:11:02.693Z,101105.00
2023-02-18T16:14:07.455Z,101108.50
2023-02-18T16:17:26.732Z,101105.09
2023-02-18T16:20:38.111Z,101122.59
2023-02-18T16:23:59.682Z,101127.81
2023-02-18T16:27:14.726Z,101133.00
2023-02-18T16:30:26.633Z,101141.00
2023-02-18T16:33:31.400Z,101150.56
2023-02-18T16:36:36.056Z,101151.47
2023-02-18T16:39:40.629Z,101168.00
2023-02-18T16:42:44.795Z,101159.34
2023-02-18T16:45:56.967Z,101162.19
2023-02-18T16:49:03.756Z,101160.47
2023-02-18T16:52:10.431Z,101164.97
2023-02-18T16:55:24.431Z,101172.06
2023-02-18T16:58:29.173Z,101179.00
2023-02-18T17:01:44.099Z,101182.63
2023-02-18T17:04:48.341Z,101190.47
2023-02-18T17:07:52.806Z,101195.72
2023-02-18T17:11:00.279Z,101196.63
2023-02-18T17:14:05.137Z,101205.28
2023-02-18T17:17:21.847Z,101214.06
2023-02-18T17:20:29.775Z,101233.13
2023-02-18T17:23:34.436Z,101233.16
2023-02-18T17:26:39.013Z,101243.63
2023-02-18T17:29:43.414Z,101243.63
2023-02-18T17:32:48.071Z,101251.47
2023-02-18T17:35:52.518Z,101271.44
2023-02-18T17:38:57.954Z,101269.78
2023-02-18T17:42:02.285Z,101275.03
2023-02-18T17:45:34.086Z,101291.53
2023-02-18T17:48:38.335Z,101306.28
2023-02-18T17:51:42.800Z,101320.09
2023-02-18T17:54:47.081Z,101331.44
2023-02-18T17:57:53.110Z,101338.41
2023-02-18T18:00:58.159Z,101343.56
2023-02-18T18:04:02.948Z,101360.94
2023-02-18T18:07:07.187Z,101362.72
2023-02-18T18:10:12.235Z,101370.53
2023-02-18T18:13:25.154Z,101380.97
2023-02-18T18:16:29.486Z,101377.53
2023-02-18T18:19:34.216Z,101379.41
2023-02-18T18:22:39.067Z,101389.75
2023-02-18T18:25:51.049Z,101394.13
2023-02-18T18:28:55.381Z,101397.59
2023-02-18T18:32:02.573Z,101403.69
2023-02-18T18:35:31.428Z,101415.00
2023-02-18T18:38:36.485Z,101411.50
2023-02-18T18:41:41.139Z,101428.03
2023-02-18T18:44:45.684Z,101427.22
2023-02-18T18:47:51.613Z,101431.53
2023-02-18T18:50:58.981Z,101438.53
2023-02-18T18:54:03.357Z,101448.88
2023-02-18T18:57:07.672Z,101442.94
2023-02-18T19:00:14.637Z,101446.41
2023-02-18T19:03:21.166Z,101456.75
2023-02-18T19:06:25.814Z,101464.56
2023-02-18T19:09:30.024Z,101464.66
2023-02-18T19:12:34.662Z,101462.94
2023-02-18T19:15:40.693Z,101461.25
2023-02-18T19:18:45.343Z,101463.88
2023-02-18T19:21:49.653Z,101462.16
2023-02-18T19:24:54.279Z,101471.66
2023-02-18T19:27:59.001Z,101475.13
2023-02-18T19:31:10.619Z,101475.09
2023-02-18T19:34:15.371Z,101473.31
2023-02-18T19:37:20.166Z,101484.53
2023-02-18T19:40:29.620Z,101493.19
2023-02-18T19:43:34.029Z,101500.09
2023-02-18T19:46:38.473Z,101500.91
2023-02-18T19:49:44.568Z,101510.44
2023-02-18T19:52:52.235Z,101526.88
2023-02-18T19:56:02.783Z,101526.88
2023-02-18T19:59:07.132Z,101530.34
2023-02-18T20:02:20.170Z,101539.94
2023-02-18T20:05:24.587Z,101539.03
2023-02-18T20:08:28.739Z,101538.16
2023-02-18T20:11:33.111Z,101537.25
2023-02-18T20:14:39.208Z,101528.66
2023-02-18T20:17:43.366Z,101532.06
2023-02-18T20:20:49.836Z,101531.19
2023-02-18T20:23:55.456Z,101523.41
2023-02-18T20:27:02.603Z,101530.31
2023-02-18T20:30:09.346Z,101533.78
2023-02-18T20:33:13.810Z,101541.56
2023-02-18T20:36:18.008Z,101545.00
2023-02-18T20:39:23.136Z,101549.34
2023-02-18T20:42:27.350Z,101557.97
2023-02-18T20:45:32.596Z,101556.22
2023-02-18T20:48:37.318Z,101557.97
2023-02-18T20:51:43.090Z,101545.81
2023-02-18T20:54:47.294Z,101549.31
2023-02-18T20:57:51.818Z,101550.16
2023-02-18T21:01:03.063Z,101549.22
2023-02-18T21:04:07.681Z,101537.13
2023-02-18T21:07:12.112Z,101542.31
2023-02-18T21:10:17.184Z,101543.97
2023-02-18T21:13:24.046Z,101535.34
2023-02-18T21:16:32.124Z,101538.78
2023-02-18T21:19:36.328Z,101542.16
2023-02-18T21:22:40.333Z,101540.50
2023-02-18T21:25:44.939Z,101543.94
2023-02-18T21:28:53.359Z,101546.53
2023-02-18T21:31:57.963Z,101536.97
2023-02-18T21:35:04.105Z,101539.53
2023-02-18T21:38:08.557Z,101541.25
2023-02-18T21:41:13.242Z,101533.50
2023-02-18T21:44:17.803Z,101544.72
2023-02-18T21:47:22.245Z,101550.72
2023-02-18T21:50:26.684Z,101544.66
2023-02-18T21:53:32.738Z,101544.66
2023-02-18T21:56:37.176Z,101544.66
2023-02-18T21:59:41.959Z,101541.19
2023-02-18T22:02:46.286Z,101548.94
2023-02-18T22:05:50.626Z,101557.59
2023-02-18T22:08:54.945Z,101554.09
2023-02-18T22:11:59.221Z,101546.31
2023-02-18T22:15:04.426Z,101540.25
2023-02-18T22:18:08.854Z,101544.56
2023-02-18T22:21:13.483Z,101547.19
2023-02-18T22:24:18.744Z,101548.88
2023-02-18T22:27:24.297Z,101541.97
2023-02-18T22:30:28.545Z,101538.47
2023-02-18T22:33:32.829Z,101522.94
2023-02-18T22:36:37.451Z,101512.56
2023-02-18T22:39:41.880Z,101496.09
2023-02-18T22:42:46.229Z,101503.84
2023-02-18T22:45:51.096Z,101504.66
2023-02-18T22:48:57.452Z,101504.63
2023-02-18T22:52:02.370Z,101508.03
2023-02-18T22:55:06.891Z,101522.69
2023-02-18T22:58:11.373Z,101517.53
2023-02-18T23:01:34.994Z,101518.38
2023-02-18T23:04:41.732Z,101518.38
2023-02-18T23:07:45.962Z,101517.50
2023-02-18T23:11:04.224Z,101527.03
2023-02-18T23:14:18.223Z,101527.00
2023-02-18T23:17:22.523Z,101524.41
2023-02-18T23:20:45.278Z,101524.53
2023-02-18T23:23:56.337Z,101515.81
2023-02-18T23:27:01.090Z,101515.00
2023-02-18T23:30:06.214Z,101510.63
2023-02-18T23:33:10.956Z,101518.41
2023-02-18T23:36:21.005Z,101524.38
2023-02-18T23:39:25.942Z,101518.34
2023-02-18T23:42:29.960Z,101514.88
2023-02-18T23:45:34.402Z,101519.19
2023-02-18T23:48:39.830Z,101520.91
2023-02-18T23:51:45.116Z,101511.38
2023-02-18T23:54:49.214Z,101518.31
2023-02-18T23:57:53.471Z,101515.72
